createdAt,value
2023-01-19T00:00:39.487Z,94176.97
2023-01-19T00:03:06.568Z,94175.50
2023-01-19T00:05:33.230Z,94171.66
2023-01-19T00:08:00.094Z,94176.31
2023-01-19T00:10:26.871Z,94168.44
2023-01-19T00:12:53.441Z,94168.44
2023-01-19T00:15:20.041Z,94172.47
2023-01-19T00:17:46.692Z,94172.59
2023-01-19T00:20:13.382Z,94175.22
2023-01-19T00:22:39.979Z,94179.81
2023-01-19T00:25:06.933Z,94178.34
2023-01-19T00:27:33.627Z,94176.75
2023-01-19T00:30:00.355Z,94173.56
2023-01-19T00:32:26.992Z,94178.41
2023-01-19T00:34:53.588Z,94174.84
2023-01-19T00:37:20.199Z,94177.84
2023-01-19T00:39:46.859Z,94176.44
2023-01-19T00:42:14.104Z,94177.41
2023-01-19T00:44:40.739Z,94182.44
2023-01-19T00:47:07.372Z,94179.53
2023-01-19T00:49:34.012Z,94184.69
2023-01-19T00:52:00.652Z,94186.47
2023-01-19T00:54:27.684Z,94186.78
2023-01-19T00:56:54.344Z,94184.19
2023-01-19T00:59:20.947Z,94182.09
2023-01-19T01:01:47.746Z,94194.81
2023-01-19T01:04:14.674Z,94199.56
2023-01-19T01:06:41.283Z,94203.13
2023-01-19T01:09:07.926Z,94203.72
2023-01-19T01:11:34.561Z,94208.41
2023-01-19T01:14:01.159Z,94210.19
2023-01-19T01:16:27.841Z,94203.56
2023-01-19T01:18:54.491Z,94212.72
2023-01-19T01:21:21.128Z,94211.59
2023-01-19T01:23:47.793Z,94209.19
2023-01-19T01:26:14.420Z,94210.50
2023-01-19T01:28:41.014Z,94213.25
2023-01-19T01:31:07.629Z,94221.16
2023-01-19T01:33:40.821Z,94216.81
2023-01-19T01:36:09.711Z,94223.56
2023-01-19T01:38:36.351Z,94225.34
2023-01-19T01:41:02.977Z,94222.13
2023-01-19T01:43:49.049Z,94222.22
2023-01-19T01:46:17.608Z,94221.31
2023-01-19T01:48:50.131Z,94224.84
2023-01-19T01:51:33.088Z,94225.50
2023-01-19T01:54:08.654Z,94217.63
2023-01-19T01:56:39.836Z,94217.00
2023-01-19T01:59:18.097Z,94223.78
2023-01-19T02:01:44.916Z,94217.78
2023-01-19T02:04:11.699Z,94226.97
2023-01-19T02:06:38.745Z,94223.72
2023-01-19T02:09:11.104Z,94224.00
2023-01-19T02:11:38.892Z,94232.69
2023-01-19T02:14:06.081Z,94227.81
2023-01-19T02:16:34.418Z,94230.91
2023-01-19T02:19:01.087Z,94236.97
2023-01-19T02:21:47.037Z,94237.25
2023-01-19T02:24:14.462Z,94226.13
2023-01-19T02:26:45.756Z,94232.88
2023-01-19T02:29:17.586Z,94226.69
2023-01-19T02:31:45.430Z,94231.22
2023-01-19T02:34:18.711Z,94236.59
2023-01-19T02:37:06.858Z,94232.56
2023-01-19T02:39:44.159Z,94233.72
2023-01-19T02:42:17.309Z,94233.25
2023-01-19T02:44:50.384Z,94230.66
2023-01-19T02:47:16.983Z,94228.75
2023-01-19T02:49:43.824Z,94235.88
2023-01-19T02:52:18.769Z,94235.69
2023-01-19T02:55:12.046Z,94237.78
2023-01-19T02:58:02.989Z,94224.25
2023-01-19T03:01:22.525Z,94231.34
2023-01-19T03:04:17.373Z,94221.72
2023-01-19T03:06:53.065Z,94221.72
2023-01-19T03:09:35.304Z,94226.84
2023-01-19T03:12:25.447Z,94224.94
2023-01-19T03:15:00.500Z,94233.31
2023-01-19T03:17:31.398Z,94221.22
2023-01-19T03:19:58.199Z,94234.75
2023-01-19T03:22:29.364Z,94234.91
2023-01-19T03:25:00.355Z,94240.41
2023-01-19T03:27:35.937Z,94243.00
2023-01-19T03:30:13.708Z,94240.25
2023-01-19T03:32:49.691Z,94240.06
2023-01-19T03:35:21.170Z,94242.53
2023-01-19T03:37:51.953Z,94244.13
2023-01-19T03:40:19.018Z,94237.81
2023-01-19T03:42:49.410Z,94238.78
2023-01-19T03:45:18.185Z,94244.97
2023-01-19T03:47:45.134Z,94241.44
2023-01-19T03:50:20.859Z,94249.13
2023-01-19T03:53:06.739Z,94252.31
2023-01-19T03:55:34.809Z,94258.31
2023-01-19T03:58:01.722Z,94254.00
2023-01-19T04:00:28.567Z,94252.03
2023-01-19T04:02:55.424Z,94257.25
2023-01-19T04:05:22.118Z,94252.59
2023-01-19T04:07:49.751Z,94257.34
2023-01-19T04:10:20.860Z,94261.69
2023-01-19T04:12:47.695Z,94253.66
2023-01-19T04:15:15.424Z,94259.63
2023-01-19T04:17:42.190Z,94256.41
2023-01-19T04:20:09.785Z,94256.69
2023-01-19T04:22:36.443Z,94261.16
2023-01-19T04:25:03.052Z,94265.47
2023-01-19T04:27:29.666Z,94272.41
2023-01-19T04:29:56.273Z,94281.94
2023-01-19T04:32:22.856Z,94277.16
2023-01-19T04:34:49.511Z,94274.81
2023-01-19T04:37:16.163Z,94279.91
2023-01-19T04:39:42.836Z,94290.19
2023-01-19T04:42:09.451Z,94288.00
2023-01-19T04:44:36.070Z,94283.88
2023-01-19T04:47:02.757Z,94285.81
2023-01-19T04:49:29.450Z,94279.31
2023-01-19T04:51:56.429Z,94274.97
2023-01-19T04:54:23.057Z,94274.19
2023-01-19T04:56:49.737Z,94283.06
2023-01-19T04:59:16.385Z,94285.81
2023-01-19T05:01:42.992Z,94286.31
2023-01-19T05:04:09.633Z,94288.06
2023-01-19T05:06:36.229Z,94288.09
2023-01-19T05:09:03.839Z,94289.09
2023-01-19T05:11:30.432Z,94294.97
2023-01-19T05:13:58.063Z,94300.72
2023-01-19T05:16:24.740Z,94300.63
2023-01-19T05:18:51.368Z,94293.84
2023-01-19T05:21:18.378Z,94290.34
2023-01-19T05:23:45.147Z,94293.34
2023-01-19T05:26:11.931Z,94297.84
2023-01-19T05:28:38.633Z,94291.09
2023-01-19T05:31:06.072Z,94302.31
2023-01-19T05:33:32.870Z,94293.38
2023-01-19T05:35:59.562Z,94302.94
2023-01-19T05:38:34.705Z,94308.69
2023-01-19T05:41:01.992Z,94305.38
2023-01-19T05:43:28.681Z,94306.09
2023-01-19T05:45:55.348Z,94308.56
2023-01-19T05:48:22.374Z,94313.16
2023-01-19T05:50:49.059Z,94307.00
2023-01-19T05:53:16.442Z,94309.13
2023-01-19T05:55:43.204Z,94313.69
2023-01-19T05:58:09.972Z,94313.78
2023-01-19T06:00:36.710Z,94308.91
2023-01-19T06:03:03.798Z,94309.53
2023-01-19T06:05:30.978Z,94316.19
2023-01-19T06:07:57.708Z,94312.78
2023-01-19T06:10:24.481Z,94318.91
2023-01-19T06:12:51.087Z,94320.28
2023-01-19T06:15:18.058Z,94319.56
2023-01-19T06:17:44.672Z,94318.47
2023-01-19T06:20:11.727Z,94325.09
2023-01-19T06:22:38.320Z,94323.81
2023-01-19T06:25:05.176Z,94325.97
2023-01-19T06:27:31.901Z,94324.44
2023-01-19T06:29:58.533Z,94325.09
2023-01-19T06:32:25.224Z,94334.44
2023-01-19T06:34:53.977Z,94329.78
2023-01-19T06:37:20.773Z,94342.44
2023-01-19T06:39:47.388Z,94335.13
2023-01-19T06:42:14.078Z,94341.06
2023-01-19T06:44:40.714Z,94339.13
2023-01-19T06:47:15.616Z,94343.72
2023-01-19T06:49:43.135Z,94343.25
2023-01-19T06:52:11.009Z,94345.53
2023-01-19T06:54:38.077Z,94349.97
2023-01-19T06:57:04.891Z,94357.09
2023-01-19T06:59:31.904Z,94355.09
2023-01-19T07:01:58.677Z,94358.34
2023-01-19T07:04:25.440Z,94355.78
2023-01-19T07:06:52.071Z,94354.28
2023-01-19T07:09:18.785Z,94367.56
2023-01-19T07:11:45.422Z,94364.47
2023-01-19T07:14:12.107Z,94368.16
2023-01-19T07:16:38.885Z,94366.44
2023-01-19T07:19:05.787Z,94365.03
2023-01-19T07:21:32.371Z,94368.47
2023-01-19T07:23:58.973Z,94378.53
2023-01-19T07:26:25.697Z,94387.25
2023-01-19T07:28:52.618Z,94385.84
2023-01-19T07:31:21.416Z,94385.34
2023-01-19T07:33:48.211Z,94392.50
2023-01-19T07:36:14.816Z,94394.13
2023-01-19T07:38:41.511Z,94388.56
2023-01-19T07:41:10.048Z,94394.72
2023-01-19T07:43:36.743Z,94395.97
2023-01-19T07:46:05.530Z,94390.84
2023-01-19T07:48:32.267Z,94384.34
2023-01-19T07:51:03.827Z,94386.63
2023-01-19T07:53:30.464Z,94397.97
2023-01-19T07:55:57.287Z,94387.97
2023-01-19T07:58:24.669Z,94395.22
2023-01-19T08:00:51.350Z,94391.00
2023-01-19T08:03:18.144Z,94392.97
2023-01-19T08:05:45.547Z,94394.22
2023-01-19T08:08:12.271Z,94392.13
2023-01-19T08:10:39.028Z,94395.88
2023-01-19T08:13:05.656Z,94397.59
2023-01-19T08:15:32.292Z,94401.00
2023-01-19T08:18:03.834Z,94400.28
2023-01-19T08:20:30.516Z,94404.69
2023-01-19T08:22:57.152Z,94406.56
2023-01-19T08:25:23.792Z,94410.31
2023-01-19T08:27:54.849Z,94413.22
2023-01-19T08:30:21.485Z,94420.72
2023-01-19T08:32:48.078Z,94416.25
2023-01-19T08:35:14.727Z,94424.53
2023-01-19T08:37:41.352Z,94429.06
2023-01-19T08:40:08.841Z,94423.03
2023-01-19T08:42:35.480Z,94430.09
2023-01-19T08:45:02.138Z,94424.50
2023-01-19T08:47:29.713Z,94423.38
2023-01-19T08:49:56.366Z,94423.41
2023-01-19T08:52:22.975Z,94429.94
2023-01-19T08:54:49.611Z,94435.91
2023-01-19T08:57:16.265Z,94436.84
2023-01-19T08:59:42.857Z,94435.84
2023-01-19T09:02:10.880Z,94432.16
2023-01-19T09:04:37.569Z,94440.50
2023-01-19T09:09:35.677Z,94442.00
2023-01-19T09:12:02.396Z,94441.47
2023-01-19T09:14:29.047Z,94441.41
2023-01-19T09:16:55.740Z,94444.53
2023-01-19T09:19:22.384Z,94447.84
2023-01-19T09:21:49.229Z,94449.63
2023-01-19T09:24:15.887Z,94453.44
2023-01-19T09:26:42.572Z,94444.53
2023-01-19T09:29:09.211Z,94445.63
2023-01-19T09:31:35.899Z,94448.22
2023-01-19T09:34:02.599Z,94447.97
2023-01-19T09:36:29.268Z,94449.59
2023-01-19T09:38:58.865Z,94447.53
2023-01-19T09:41:26.515Z,94452.53
2023-01-19T09:43:59.463Z,94445.53
2023-01-19T09:46:37.430Z,94450.09
2023-01-19T09:49:16.705Z,94460.22
2023-01-19T09:51:51.281Z,94460.13
2023-01-19T09:54:29.133Z,94460.31
2023-01-19T09:56:55.773Z,94460.59
2023-01-19T09:59:33.652Z,94458.16
2023-01-19T10:02:18.289Z,94452.97
2023-01-19T10:05:01.108Z,94458.97
2023-01-19T10:07:36.789Z,94459.16
2023-01-19T10:10:28.887Z,94459.63
2023-01-19T10:13:03.166Z,94463.19
2023-01-19T10:15:54.574Z,94463.44
2023-01-19T10:18:37.403Z,94458.38
2023-01-19T10:21:31.437Z,94455.63
2023-01-19T10:24:23.481Z,94454.59
2023-01-19T10:26:53.262Z,94448.47
2023-01-19T10:29:31.133Z,94453.34
2023-01-19T10:32:29.598Z,94448.38
2023-01-19T10:34:56.340Z,94449.66
2023-01-19T10:37:32.652Z,94445.09
2023-01-19T10:40:09.090Z,94448.56
2023-01-19T10:42:37.397Z,94449.44
2023-01-19T10:45:14.489Z,94448.25
2023-01-19T10:47:43.875Z,94443.44
2023-01-19T10:50:32.536Z,94449.50
2023-01-19T10:53:02.683Z,94441.34
2023-01-19T10:55:36.047Z,94443.38
2023-01-19T10:58:02.707Z,94440.97
2023-01-19T11:00:29.451Z,94438.09
2023-01-19T11:02:56.143Z,94435.03
2023-01-19T11:05:26.683Z,94427.00
2023-01-19T11:07:53.644Z,94432.16
2023-01-19T11:10:24.473Z,94421.53
2023-01-19T11:13:28.423Z,94425.31
2023-01-19T11:15:59.337Z,94425.03
2023-01-19T11:18:34.131Z,94416.94
2023-01-19T11:21:08.089Z,94423.84
2023-01-19T11:23:39.830Z,94413.03
2023-01-19T11:26:06.568Z,94412.66
2023-01-19T11:28:44.840Z,94406.72
2023-01-19T11:31:14.432Z,94403.78
2023-01-19T11:33:42.439Z,94404.56
2023-01-19T11:36:29.444Z,94399.03
2023-01-19T11:38:59.212Z,94392.81
2023-01-19T11:41:36.997Z,94394.63
2023-01-19T11:44:22.502Z,94385.97
2023-01-19T11:46:56.434Z,94391.88
2023-01-19T11:49:51.855Z,94386.06
2023-01-19T11:52:35.986Z,94383.50
2023-01-19T11:55:05.342Z,94387.78
2023-01-19T11:57:32.147Z,94384.56
2023-01-19T12:00:04.484Z,94377.75
2023-01-19T12:02:45.659Z,94377.81
2023-01-19T12:05:16.724Z,94366.72
2023-01-19T12:07:47.643Z,94363.59
2023-01-19T12:10:23.384Z,94362.38
2023-01-19T12:12:52.638Z,94361.22
2023-01-19T12:15:41.903Z,94370.56
2023-01-19T12:18:21.639Z,94363.22
2023-01-19T12:20:56.359Z,94361.25
2023-01-19T12:23:34.374Z,94364.53
2023-01-19T12:26:16.156Z,94351.44
2023-01-19T12:28:47.306Z,94358.75
2023-01-19T12:31:20.285Z,94352.84
2023-01-19T12:33:48.058Z,94359.16
2023-01-19T12:36:26.605Z,94357.31
2023-01-19T12:39:01.447Z,94353.47
2023-01-19T12:41:37.783Z,94362.97
2023-01-19T12:44:10.197Z,94357.66
2023-01-19T12:46:50.637Z,94352.97
2023-01-19T12:49:32.638Z,94351.00
2023-01-19T12:52:20.372Z,94352.44
2023-01-19T12:54:58.793Z,94354.88
2023-01-19T12:57:37.851Z,94349.41
2023-01-19T13:00:24.432Z,94348.66
2023-01-19T13:03:24.374Z,94353.41
2023-01-19T13:05:54.181Z,94350.78
2023-01-19T13:08:26.309Z,94343.88
2023-01-19T13:11:00.529Z,94345.13
2023-01-19T13:13:30.885Z,94340.81
2023-01-19T13:16:20.606Z,94345.00
2023-01-19T13:18:58.903Z,94340.03
2023-01-19T13:21:31.561Z,94341.38
2023-01-19T13:24:01.420Z,94339.28
2023-01-19T13:26:40.076Z,94343.22
2023-01-19T13:29:13.919Z,94341.06
2023-01-19T13:31:43.669Z,94341.41
2023-01-19T13:34:16.987Z,94334.47
2023-01-19T13:36:51.954Z,94337.34
2023-01-19T13:39:44.563Z,94336.06
2023-01-19T13:42:20.993Z,94336.59
2023-01-19T13:44:52.922Z,94333.47
2023-01-19T13:47:25.090Z,94330.25
2023-01-19T13:49:56.816Z,94327.09
2023-01-19T13:52:28.864Z,94328.63
2023-01-19T13:55:01.298Z,94334.66
2023-01-19T13:57:31.957Z,94326.28
2023-01-19T14:00:22.013Z,94326.72
2023-01-19T14:03:13.310Z,94322.16
2023-01-19T14:05:42.897Z,94319.13
2023-01-19T14:08:09.536Z,94317.72
2023-01-19T14:10:38.149Z,94316.56
2023-01-19T14:13:17.011Z,94321.22
2023-01-19T14:15:45.440Z,94317.66
2023-01-19T14:18:25.189Z,94315.16
2023-01-19T14:21:07.471Z,94318.09
2023-01-19T14:24:12.595Z,94307.63
2023-01-19T14:26:53.908Z,94306.25
2023-01-19T14:29:29.513Z,94305.72
2023-01-19T14:32:02.303Z,94313.16
2023-01-19T14:34:50.089Z,94309.03
2023-01-19T14:37:27.374Z,94312.13
2023-01-19T14:40:02.960Z,94301.88
2023-01-19T14:42:37.029Z,94302.56
2023-01-19T14:45:16.633Z,94292.56
2023-01-19T14:47:45.928Z,94303.19
2023-01-19T14:50:26.363Z,94300.78
2023-01-19T14:52:55.841Z,94293.09
2023-01-19T14:55:32.152Z,94292.56
2023-01-19T14:57:58.867Z,94285.44
2023-01-19T15:00:25.673Z,94292.22
2023-01-19T15:02:52.339Z,94288.75
2023-01-19T15:05:19.979Z,94288.03
2023-01-19T15:07:46.920Z,94285.66
2023-01-19T15:10:23.475Z,94285.69
2023-01-19T15:12:52.531Z,94284.06
2023-01-19T15:15:33.872Z,94289.72
2023-01-19T15:18:04.341Z,94278.44
2023-01-19T15:20:31.085Z,94274.44
2023-01-19T15:22:57.723Z,94276.81
2023-01-19T15:25:24.716Z,94270.69
2023-01-19T15:27:52.137Z,94276.13
2023-01-19T15:30:26.171Z,94277.19
2023-01-19T15:32:52.783Z,94277.47
2023-01-19T15:35:21.967Z,94279.06
2023-01-19T15:37:49.897Z,94279.47
2023-01-19T15:40:18.850Z,94279.50
2023-01-19T15:42:45.684Z,94272.84
2023-01-19T15:45:36.814Z,94273.44
2023-01-19T15:48:11.082Z,94264.41
2023-01-19T15:50:43.359Z,94258.59
2023-01-19T15:53:19.276Z,94258.59
2023-01-19T15:55:53.915Z,94255.91
2023-01-19T15:58:20.694Z,94255.53
2023-01-19T16:00:54.119Z,94263.78
2023-01-19T16:03:20.855Z,94255.56
2023-01-19T16:05:47.533Z,94250.94
2023-01-19T16:08:14.291Z,94254.72
2023-01-19T16:10:41.868Z,94251.72
2023-01-19T16:13:10.811Z,94252.31
2023-01-19T16:15:39.238Z,94248.91
2023-01-19T16:18:06.227Z,94244.22
2023-01-19T16:20:32.838Z,94245.19
2023-01-19T16:23:13.545Z,94239.16
2023-01-19T16:25:41.323Z,94241.34
2023-01-19T16:28:07.987Z,94242.50
2023-01-19T16:30:35.802Z,94237.28
2023-01-19T16:33:02.450Z,94236.59
2023-01-19T16:35:29.045Z,94237.63
2023-01-19T16:37:55.644Z,94243.66
2023-01-19T16:40:22.260Z,94238.63
2023-01-19T16:42:48.879Z,94236.50
2023-01-19T16:45:15.596Z,94234.88
2023-01-19T16:47:42.206Z,94237.97
2023-01-19T16:50:11.709Z,94227.53
2023-01-19T16:52:38.708Z,94225.78
2023-01-19T16:55:06.231Z,94227.84
2023-01-19T16:57:32.904Z,94229.28
2023-01-19T16:59:59.576Z,94232.56
2023-01-19T17:02:26.202Z,94231.16
2023-01-19T17:04:52.906Z,94230.78
2023-01-19T17:07:19.574Z,94232.56
2023-01-19T17:09:46.155Z,94235.84
2023-01-19T17:12:12.807Z,94233.25
2023-01-19T17:14:39.539Z,94232.06
2023-01-19T17:17:06.191Z,94232.81
2023-01-19T17:19:32.820Z,94234.25
2023-01-19T17:21:59.418Z,94227.84
2023-01-19T17:24:26.043Z,94225.47
2023-01-19T17:26:52.691Z,94226.19
2023-01-19T17:29:19.339Z,94225.34
2023-01-19T17:31:46.081Z,94222.94
2023-01-19T17:34:12.864Z,94223.97
2023-01-19T17:36:39.490Z,94218.00
2023-01-19T17:39:08.613Z,94221.53
2023-01-19T17:41:36.052Z,94221.81
2023-01-19T17:44:05.686Z,94215.75
2023-01-19T17:46:36.437Z,94212.03
2023-01-19T17:49:05.816Z,94216.22
2023-01-19T17:51:33.606Z,94210.78
2023-01-19T17:54:00.686Z,94214.13
2023-01-19T17:56:30.111Z,94214.16
2023-01-19T17:58:58.209Z,94209.00
2023-01-19T18:01:28.198Z,94208.63
2023-01-19T18:03:55.123Z,94210.31
2023-01-19T18:06:22.283Z,94206.91
2023-01-19T18:08:49.986Z,94203.19
2023-01-19T18:11:19.098Z,94201.25
2023-01-19T18:13:48.176Z,94201.16
2023-01-19T18:16:21.498Z,94193.44
2023-01-19T18:18:48.307Z,94188.69
2023-01-19T18:21:16.448Z,94189.59
2023-01-19T18:23:43.131Z,94194.03
2023-01-19T18:26:18.590Z,94199.38
2023-01-19T18:28:45.528Z,94180.44
2023-01-19T18:31:15.460Z,94181.19
2023-01-19T18:33:42.594Z,94186.09
2023-01-19T18:36:10.403Z,94175.78
2023-01-19T18:38:38.821Z,94168.50
2023-01-19T18:41:12.547Z,94173.94
2023-01-19T18:43:40.047Z,94175.50
2023-01-19T18:46:07.054Z,94172.09
2023-01-19T18:48:34.262Z,94175.78
2023-01-19T18:51:05.951Z,94168.88
2023-01-19T18:53:32.656Z,94168.09
2023-01-19T18:56:01.513Z,94169.19
2023-01-19T18:58:29.465Z,94172.16
2023-01-19T19:00:56.581Z,94158.28
2023-01-19T19:03:24.141Z,94162.06
2023-01-19T19:05:50.856Z,94160.97
2023-01-19T19:08:18.166Z,94155.81
2023-01-19T19:10:45.114Z,94156.91
2023-01-19T19:13:13.643Z,94158.53
2023-01-19T19:15:40.472Z,94165.84
2023-01-19T19:18:07.320Z,94163.91
2023-01-19T19:20:33.989Z,94161.81
2023-01-19T19:23:00.615Z,94166.00
2023-01-19T19:25:27.229Z,94157.75
2023-01-19T19:27:53.869Z,94148.09
2023-01-19T19:30:20.883Z,94149.03
2023-01-19T19:32:54.675Z,94146.63
2023-01-19T19:35:21.709Z,94146.47
2023-01-19T19:37:48.998Z,94156.78
2023-01-19T19:40:16.341Z,94155.84
2023-01-19T19:42:43.119Z,94146.94
2023-01-19T19:45:11.166Z,94138.22
2023-01-19T19:47:37.799Z,94147.13
2023-01-19T19:50:04.784Z,94150.84
2023-01-19T19:52:31.438Z,94152.22
2023-01-19T19:54:58.112Z,94158.63
2023-01-19T19:57:25.088Z,94168.63
2023-01-19T19:59:52.173Z,94166.84
2023-01-19T20:02:18.861Z,94172.59
2023-01-19T20:04:45.648Z,94163.53
2023-01-19T20:07:12.337Z,94167.00
2023-01-19T20:09:38.957Z,94178.34
2023-01-19T20:12:05.973Z,94162.28
2023-01-19T20:14:32.563Z,94165.38
2023-01-19T20:16:59.305Z,94171.31
2023-01-19T20:19:25.935Z,94171.31
2023-01-19T20:21:52.601Z,94167.31
2023-01-19T20:24:20.537Z,94174.78
2023-01-19T20:26:50.604Z,94172.66
2023-01-19T20:29:21.442Z,94174.03
2023-01-19T20:31:52.368Z,94181.94
2023-01-19T20:34:21.928Z,94168.06
2023-01-19T20:36:48.903Z,94173.34
2023-01-19T20:39:17.872Z,94172.34
2023-01-19T20:41:44.573Z,94173.88
2023-01-19T20:44:24.173Z,94176.50
2023-01-19T20:46:51.923Z,94172.66
2023-01-19T20:49:18.676Z,94182.97
2023-01-19T20:51:45.705Z,94183.09
2023-01-19T20:54:15.887Z,94182.50
2023-01-19T20:56:42.636Z,94184.22
2023-01-19T20:59:10.558Z,94191.75
2023-01-19T21:01:38.397Z,94180.56
2023-01-19T21:04:05.316Z,94189.06
2023-01-19T21:06:32.393Z,94185.53
2023-01-19T21:08:59.049Z,94186.31
2023-01-19T21:11:25.740Z,94189.28
2023-01-19T21:13:52.811Z,94196.06
2023-01-19T21:16:19.433Z,94201.66
2023-01-19T21:18:46.067Z,94206.25
2023-01-19T21:21:24.594Z,94193.75
2023-01-19T21:23:58.381Z,94207.16
2023-01-19T21:26:25.124Z,94210.41
2023-01-19T21:28:51.789Z,94204.94
2023-01-19T21:31:18.521Z,94216.78
2023-01-19T21:33:45.369Z,94208.53
2023-01-19T21:36:12.132Z,94221.16
2023-01-19T21:38:39.393Z,94219.31
2023-01-19T21:41:11.554Z,94224.59
2023-01-19T21:43:40.112Z,94225.22
2023-01-19T21:46:17.598Z,94223.50
2023-01-19T21:48:44.512Z,94219.31
2023-01-19T21:51:12.005Z,94225.38
2023-01-19T21:53:39.010Z,94231.72
2023-01-19T21:56:10.632Z,94235.25
2023-01-19T21:58:37.836Z,94233.09
2023-01-19T22:01:07.952Z,94237.88
2023-01-19T22:03:34.675Z,94245.19
2023-01-19T22:06:06.426Z,94241.81
2023-01-19T22:08:33.451Z,94244.25
2023-01-19T22:11:09.646Z,94265.53
2023-01-19T22:13:37.699Z,94256.56
2023-01-19T22:16:10.451Z,94258.50
2023-01-19T22:18:39.549Z,94261.81
2023-01-19T22:21:09.207Z,94263.47
2023-01-19T22:23:36.844Z,94267.63
2023-01-19T22:26:05.035Z,94270.94
2023-01-19T22:28:32.213Z,94278.97
2023-01-19T22:31:07.345Z,94276.88
2023-01-19T22:33:34.184Z,94277.25
2023-01-19T22:36:16.374Z,94271.53
2023-01-19T22:38:44.355Z,94276.88
2023-01-19T22:41:15.839Z,94271.56
2023-01-19T22:43:43.604Z,94264.69
2023-01-19T22:46:10.336Z,94256.00
2023-01-19T22:48:36.978Z,94261.28
2023-01-19T22:51:04.189Z,94263.78
2023-01-19T22:53:32.117Z,94260.22
2023-01-19T22:55:58.763Z,94267.13
2023-01-19T22:58:25.361Z,94263.44
2023-01-19T23:00:52.127Z,94264.50
2023-01-19T23:03:18.792Z,94274.81
2023-01-19T23:05:45.400Z,94272.31
2023-01-19T23:08:11.978Z,94280.03
2023-01-19T23:10:39.043Z,94283.44
2023-01-19T23:13:05.643Z,94279.44
2023-01-19T23:15:33.381Z,94277.44
2023-01-19T23:18:00.060Z,94291.38
2023-01-19T23:20:26.674Z,94288.41
2023-01-19T23:22:53.351Z,94287.28
2023-01-19T23:25:20.050Z,94279.25
2023-01-19T23:27:46.718Z,94288.19
2023-01-19T23:30:13.835Z,94294.66
2023-01-19T23:32:40.464Z,94285.06
2023-01-19T23:35:07.415Z,94291.47
2023-01-19T23:37:34.252Z,94293.09
2023-01-19T23:40:00.889Z,94290.13
2023-01-19T23:42:27.605Z,94288.19
2023-01-19T23:44:54.271Z,94290.78
2023-01-19T23:47:21.086Z,94284.91
2023-01-19T23:49:47.723Z,94295.44
2023-01-19T23:52:14.414Z,94297.63
2023-01-19T23:54:41.148Z,94296.81
2023-01-19T23:57:07.896Z,94299.72
2023-01-19T23:59:34.499Z,94313.22
